Time;durP1;ratioP1;P1;durP2;ratioP2;P2;SDS_P1;SDS_P2;PMS_P1;PMS_P2;Temp;Humidity;BMP_temperature;BMP_pressure;BME280_temperature;BME280_humidity;BME280_pressure;Samples;Min_cycle;Max_cycle;Signal;HPM_P1;HPM_P2
2021/05/15 00:00:28;;;;;;;2.05;1.85;;;9.10;99.90;;;;;;5033243;28;20025;-74
2021/05/15 00:02:54;;;;;;;1.77;1.60;;;9.10;99.90;;;;;;5033008;28;20072;-74
2021/05/15 00:05:20;;;;;;;4.38;2.00;;;9.00;99.90;;;;;;5033229;28;20029;-73
2021/05/15 00:07:46;;;;;;;2.35;2.15;;;9.10;99.90;;;;;;5033417;28;20084;-74
2021/05/15 00:10:12;;;;;;;2.17;1.98;;;9.10;99.90;;;;;;5033610;28;20041;-72
2021/05/15 00:12:37;;;;;;;7.80;2.17;;;9.10;99.90;;;;;;5032725;28;20017;-75
2021/05/15 00:15:06;;;;;;;2.88;2.60;;;9.10;99.90;;;;;;5032678;28;20017;-72
2021/05/15 00:17:33;;;;;;;6.97;2.25;;;9.00;99.90;;;;;;5033301;28;20021;-73
2021/05/15 00:19:59;;;;;;;8.63;3.00;;;9.00;99.90;;;;;;5031775;28;20056;-75
2021/05/15 00:22:24;;;;;;;2.50;2.30;;;9.00;99.90;;;;;;5032659;28;20069;-74
2021/05/15 00:24:50;;;;;;;2.85;2.03;;;9.00;99.90;;;;;;5032324;28;20032;-74
2021/05/15 00:27:16;;;;;;;4.00;2.15;;;9.00;99.90;;;;;;5033028;28;20018;-74
2021/05/15 00:29:41;;;;;;;1.85;1.65;;;9.00;99.90;;;;;;5032900;28;20060;-73
2021/05/15 00:32:07;;;;;;;2.38;2.17;;;8.90;99.90;;;;;;5032781;28;20065;-73
2021/05/15 00:34:33;;;;;;;5.93;2.13;;;9.00;99.90;;;;;;5032233;28;20053;-73
2021/05/15 00:36:58;;;;;;;2.25;2.00;;;9.00;99.90;;;;;;5032657;28;20030;-73
2021/05/15 00:39:24;;;;;;;5.22;2.22;;;8.90;99.90;;;;;;5032670;28;20030;-72
2021/05/15 00:41:50;;;;;;;5.25;2.30;;;8.90;99.90;;;;;;5031233;28;20646;-72
2021/05/15 00:46:50;;;;;;;2.60;2.40;;;8.90;99.90;;;;;;5032807;28;20032;-73
2021/05/15 00:49:16;;;;;;;3.92;2.20;;;8.80;99.90;;;;;;5032287;28;20030;-71
2021/05/15 00:51:42;;;;;;;2.40;2.25;;;8.80;99.90;;;;;;5032149;28;20033;-72
2021/05/15 00:54:11;;;;;;;3.35;2.58;;;8.70;99.90;;;;;;5031782;28;20032;-72
2021/05/15 00:56:38;;;;;;;2.90;2.00;;;8.70;99.90;;;;;;5032399;28;20061;-73
2021/05/15 00:59:04;;;;;;;2.58;2.38;;;8.50;99.90;;;;;;5032350;28;20484;-75
2021/05/15 01:01:31;;;;;;;9.20;2.40;;;8.50;99.90;;;;;;5032125;28;20029;-71
2021/05/15 01:03:56;;;;;;;2.55;2.22;;;8.50;99.90;;;;;;5031480;28;20576;-72
2021/05/15 01:06:22;;;;;;;4.13;2.33;;;8.40;99.90;;;;;;5032055;28;20041;-72
2021/05/15 01:08:48;;;;;;;2.53;2.33;;;8.40;99.90;;;;;;5030994;28;20025;-74
2021/05/15 01:11:19;;;;;;;2.85;2.65;;;8.30;99.90;;;;;;5032098;28;20021;-74
2021/05/15 01:13:59;;;;;;;5.85;2.38;;;8.30;99.90;;;;;;5031274;28;20033;-73
2021/05/15 01:16:26;;;;;;;5.72;2.95;;;8.30;99.90;;;;;;5031996;28;20502;-72
2021/05/15 01:18:52;;;;;;;4.13;3.00;;;8.20;99.90;;;;;;5031991;28;20025;-74
2021/05/15 01:21:18;;;;;;;3.00;2.80;;;8.10;99.90;;;;;;5031460;28;20025;-75
2021/05/15 01:23:44;;;;;;;3.20;2.47;;;8.10;99.90;;;;;;5031276;28;20064;-75
2021/05/15 01:26:16;;;;;;;4.25;2.80;;;8.00;99.90;;;;;;5030658;28;20391;-74
2021/05/15 01:28:42;;;;;;;3.85;3.08;;;7.90;99.90;;;;;;5031883;28;20017;-74
2021/05/15 01:31:08;;;;;;;3.70;3.00;;;7.90;99.90;;;;;;5031807;28;20021;-74
2021/05/15 01:33:33;;;;;;;5.65;3.00;;;7.80;99.90;;;;;;5031096;28;20025;-75
2021/05/15 01:35:59;;;;;;;8.38;4.05;;;7.80;99.90;;;;;;5031631;28;20512;-72
2021/05/15 01:38:25;;;;;;;6.55;3.90;;;7.80;99.90;;;;;;5013911;28;20595;-73
2021/05/15 01:40:50;;;;;;;4.45;3.50;;;7.80;99.90;;;;;;5011777;28;20025;-74
2021/05/15 01:43:20;;;;;;;5.90;4.35;;;7.80;99.90;;;;;;5011302;28;20034;-74
2021/05/15 01:45:46;;;;;;;4.15;3.75;;;7.70;99.90;;;;;;5011623;28;20018;-74
2021/05/15 01:48:19;;;;;;;5.13;4.60;;;7.80;99.90;;;;;;5011985;28;20123;-72
2021/05/15 01:51:10;;;;;;;6.13;4.30;;;7.70;99.90;;;;;;5012045;28;20030;-74
2021/05/15 01:53:39;;;;;;;5.47;3.75;;;7.80;99.90;;;;;;5026177;28;20407;-73
2021/05/15 01:56:07;;;;;;;5.50;3.47;;;7.70;99.90;;;;;;5031155;28;20022;-72
2021/05/15 01:58:34;;;;;;;2.80;2.60;;;7.70;99.90;;;;;;5031442;28;20029;-75
2021/05/15 02:00:59;;;;;;;7.32;2.65;;;7.60;99.90;;;;;;5031472;28;20400;-75
2021/05/15 02:03:25;;;;;;;5.68;4.03;;;7.70;99.90;;;;;;5030431;28;20021;-74
2021/05/15 02:05:53;;;;;;;4.20;3.53;;;7.70;99.90;;;;;;5031350;28;20026;-75
2021/05/15 02:08:20;;;;;;;3.33;3.03;;;7.80;99.90;;;;;;5031306;28;20013;-73
2021/05/15 02:10:46;;;;;;;3.63;3.33;;;7.70;99.90;;;;;;5029432;28;20029;-74
2021/05/15 02:13:12;;;;;;;3.95;2.88;;;7.70;99.90;;;;;;5029697;28;20392;-73
2021/05/15 02:15:39;;;;;;;4.80;2.78;;;7.70;99.90;;;;;;5030386;28;20033;-74
2021/05/15 02:18:06;;;;;;;2.55;2.35;;;7.60;99.90;;;;;;5030160;28;20550;-74
2021/05/15 02:20:32;;;;;;;4.90;3.20;;;7.60;99.90;;;;;;5031119;28;20032;-74
2021/05/15 02:22:58;;;;;;;3.08;2.78;;;7.60;99.90;;;;;;5061046;23;20017;-73
2021/05/15 02:25:25;;;;;;;2.75;2.10;;;7.50;99.90;;;;;;5049076;28;20037;-74
2021/05/15 02:27:51;;;;;;;4.22;2.00;;;7.50;99.90;;;;;;5049738;28;20056;-74
2021/05/15 02:30:19;;;;;;;4.85;2.60;;;7.50;99.90;;;;;;5051084;28;20039;-73
2021/05/15 02:32:45;;;;;;;2.45;2.25;;;7.40;99.90;;;;;;5048337;28;20025;-73
2021/05/15 02:35:11;;;;;;;3.90;2.50;;;7.30;99.90;;;;;;5030976;28;20025;-73
2021/05/15 02:37:38;;;;;;;5.03;2.70;;;7.30;99.90;;;;;;5031114;28;20047;-73
2021/05/15 02:40:04;;;;;;;2.60;2.40;;;7.30;99.90;;;;;;5029440;28;20061;-73
2021/05/15 02:42:30;;;;;;;10.88;3.25;;;7.30;99.90;;;;;;5031037;28;20034;-74
2021/05/15 02:44:56;;;;;;;2.53;2.33;;;7.30;99.90;;;;;;5030309;28;20032;-74
2021/05/15 02:47:23;;;;;;;6.38;2.55;;;7.30;99.90;;;;;;5031036;28;20051;-73
2021/05/15 02:49:49;;;;;;;5.28;2.80;;;7.30;99.90;;;;;;5031357;28;20138;-74
2021/05/15 02:52:15;;;;;;;4.40;2.58;;;7.40;99.90;;;;;;5031042;28;20571;-73
2021/05/15 02:54:41;;;;;;;2.30;2.10;;;7.40;99.90;;;;;;5015652;28;20088;-74
2021/05/15 02:57:08;;;;;;;4.85;2.50;;;7.40;99.90;;;;;;5011372;28;20022;-74
2021/05/15 02:59:34;;;;;;;2.55;2.35;;;7.40;99.90;;;;;;5011329;28;20037;-73
2021/05/15 03:02:00;;;;;;;3.50;2.50;;;7.30;99.90;;;;;;5011233;28;20546;-74
2021/05/15 03:04:26;;;;;;;4.40;2.05;;;7.30;99.90;;;;;;5010381;28;20399;-74
2021/05/15 03:06:52;;;;;;;2.00;1.90;;;7.30;99.90;;;;;;5013006;28;20041;-73
2021/05/15 03:09:18;;;;;;;2.88;2.30;;;7.20;99.90;;;;;;5019058;28;20044;-73
2021/05/15 03:11:43;;;;;;;4.50;2.85;;;7.20;99.90;;;;;;5015533;28;20476;-74
2021/05/15 03:14:09;;;;;;;3.35;2.30;;;7.20;99.90;;;;;;5010444;28;20037;-74
2021/05/15 03:16:35;;;;;;;4.13;3.20;;;7.30;99.90;;;;;;5012376;28;20037;-74
2021/05/15 03:19:01;;;;;;;4.60;2.50;;;7.10;99.90;;;;;;5014621;28;20065;-73
2021/05/15 03:21:27;;;;;;;10.45;3.33;;;7.10;99.90;;;;;;5014519;28;20022;-75
2021/05/15 03:23:52;;;;;;;3.72;2.78;;;7.20;99.90;;;;;;5021049;28;20037;-74
2021/05/15 03:26:18;;;;;;;7.97;2.83;;;7.20;99.90;;;;;;5034352;28;20025;-74
2021/05/15 03:28:44;;;;;;;5.03;2.38;;;7.10;99.90;;;;;;5034406;28;20021;-75
2021/05/15 03:31:09;;;;;;;9.00;2.80;;;7.10;99.90;;;;;;5035042;28;20032;-74
2021/05/15 03:33:35;;;;;;;2.60;2.40;;;7.10;99.90;;;;;;5020454;28;20030;-74
2021/05/15 03:36:01;;;;;;;6.65;3.05;;;7.20;99.90;;;;;;5014377;28;20036;-74
2021/05/15 03:38:26;;;;;;;3.25;2.70;;;7.20;99.90;;;;;;5014310;28;20038;-74
2021/05/15 03:40:52;;;;;;;3.85;2.53;;;7.20;99.90;;;;;;5014479;28;20125;-74
2021/05/15 03:43:18;;;;;;;5.03;2.78;;;7.10;99.90;;;;;;5013783;28;20080;-73
2021/05/15 03:45:43;;;;;;;2.70;2.47;;;7.10;99.90;;;;;;5014316;28;20041;-73
2021/05/15 03:48:09;;;;;;;4.72;2.22;;;7.00;99.90;;;;;;5014213;28;20029;-74
2021/05/15 03:50:35;;;;;;;2.60;2.40;;;7.10;99.90;;;;;;5014242;28;20034;-73
2021/05/15 03:53:00;;;;;;;3.28;2.45;;;7.10;99.90;;;;;;5014127;28;20100;-75
2021/05/15 03:55:27;;;;;;;4.80;2.55;;;7.20;99.90;;;;;;5033488;28;20443;-75
2021/05/15 03:57:52;;;;;;;3.42;2.78;;;7.20;99.90;;;;;;5033990;28;20039;-74
2021/05/15 04:00:19;;;;;;;4.55;3.10;;;7.20;99.90;;;;;;5033584;28;20491;-74
2021/05/15 04:02:48;;;;;;;5.65;3.25;;;7.20;99.90;;;;;;5033022;28;20025;-75
2021/05/15 04:05:14;;;;;;;6.07;3.13;;;7.30;99.90;;;;;;5033487;28;20115;-74
2021/05/15 04:07:40;;;;;;;3.67;3.33;;;7.30;99.90;;;;;;5032634;28;20026;-74
2021/05/15 04:10:06;;;;;;;6.43;3.80;;;7.30;99.90;;;;;;5031984;28;20104;-73
2021/05/15 04:12:35;;;;;;;4.82;2.88;;;7.30;99.90;;;;;;5033303;28;20033;-74
2021/05/15 04:17:30;;;;;;;5.57;2.58;;;7.30;99.90;;;;;;5033704;28;20018;-74
2021/05/15 04:19:56;;;;;;;4.95;3.08;;;7.30;99.90;;;;;;5033547;28;20029;-75
2021/05/15 04:22:23;;;;;;;5.68;3.25;;;7.20;99.90;;;;;;5033586;28;20062;-76
2021/05/15 04:24:48;;;;;;;5.88;2.92;;;7.40;99.90;;;;;;5032099;28;20029;-73
2021/05/15 04:27:14;;;;;;;7.75;2.70;;;7.40;99.90;;;;;;5032602;28;20022;-73
2021/05/15 04:29:41;;;;;;;4.53;2.90;;;7.50;99.90;;;;;;5033081;28;20076;-74
2021/05/15 04:32:07;;;;;;;8.45;3.00;;;7.60;99.90;;;;;;5034088;28;20021;-75
2021/05/15 04:34:33;;;;;;;3.80;3.10;;;7.60;99.90;;;;;;5033009;28;20113;-73
2021/05/15 04:36:59;;;;;;;6.13;3.80;;;7.60;99.90;;;;;;5032753;28;20048;-74
2021/05/15 04:39:28;;;;;;;4.05;3.55;;;7.70;99.90;;;;;;5031970;28;20021;-74
2021/05/15 04:41:55;;;;;;;3.53;3.03;;;7.80;99.90;;;;;;5033432;28;20022;-76
2021/05/15 04:44:21;;;;;;;5.82;3.10;;;7.90;99.90;;;;;;5036972;28;20017;-74
2021/05/15 04:46:47;;;;;;;5.97;2.70;;;8.00;99.90;;;;;;5045183;28;20021;-76
2021/05/15 04:49:13;;;;;;;2.92;2.72;;;8.10;99.90;;;;;;5035656;28;20071;-75
2021/05/15 04:51:40;;;;;;;4.82;2.40;;;8.10;99.90;;;;;;5034893;28;20061;-76
2021/05/15 04:54:06;;;;;;;3.13;2.22;;;8.00;99.90;;;;;;5032472;28;20052;-76
2021/05/15 04:56:32;;;;;;;6.43;2.15;;;8.10;99.90;;;;;;5034103;28;20033;-75
2021/05/15 04:58:58;;;;;;;3.63;2.35;;;8.30;99.90;;;;;;5034785;28;20034;-77
2021/05/15 05:01:23;;;;;;;4.57;2.40;;;8.40;99.90;;;;;;5034646;28;20053;-76
2021/05/15 05:03:49;;;;;;;3.15;2.20;;;8.50;99.90;;;;;;5032128;28;20029;-75
2021/05/15 05:06:15;;;;;;;4.25;2.50;;;8.60;99.90;;;;;;5033470;28;20092;-75
2021/05/15 05:08:40;;;;;;;6.25;2.38;;;8.70;99.90;;;;;;5033614;28;20112;-77
2021/05/15 05:11:06;;;;;;;2.53;2.33;;;8.80;99.90;;;;;;5035439;28;20053;-75
2021/05/15 05:13:32;;;;;;;4.20;2.20;;;8.80;99.90;;;;;;5033303;28;20053;-75
2021/05/15 05:15:57;;;;;;;2.30;2.20;;;8.90;99.90;;;;;;5033697;28;20057;-75
2021/05/15 05:18:24;;;;;;;7.22;2.15;;;9.10;99.90;;;;;;5033701;28;20064;-75
2021/05/15 05:20:50;;;;;;;2.53;1.83;;;9.30;99.90;;;;;;5033231;28;20036;-75
2021/05/15 05:23:15;;;;;;;2.92;1.90;;;9.40;99.90;;;;;;5030833;28;20033;-75
2021/05/15 05:25:41;;;;;;;5.18;2.25;;;9.60;99.90;;;;;;5032273;28;20443;-77
2021/05/15 05:28:07;;;;;;;3.08;2.05;;;9.60;99.90;;;;;;5035635;28;20338;-76
2021/05/15 05:30:33;;;;;;;2.70;2.10;;;9.70;99.90;;;;;;5038459;28;20017;-76
2021/05/15 05:33:00;;;;;;;3.80;1.73;;;9.60;99.90;;;;;;5037281;28;20025;-77
2021/05/15 05:35:26;;;;;;;1.88;1.77;;;9.50;99.90;;;;;;5036098;28;20060;-76
2021/05/15 05:37:52;;;;;;;1.80;1.60;;;9.60;99.90;;;;;;5033865;28;20029;-75
2021/05/15 05:40:18;;;;;;;2.05;1.77;;;9.60;99.90;;;;;;5033061;28;20443;-76
2021/05/15 05:42:44;;;;;;;2.95;1.75;;;9.60;99.90;;;;;;5032997;28;20634;-77
2021/05/15 05:45:12;;;;;;;1.60;1.50;;;9.50;99.90;;;;;;5033627;28;20017;-76
2021/05/15 05:47:38;;;;;;;2.35;1.65;;;9.50;99.90;;;;;;5033668;28;20033;-75
2021/05/15 05:50:06;;;;;;;2.85;1.55;;;9.60;99.90;;;;;;5032309;28;20646;-76
2021/05/15 05:52:32;;;;;;;1.40;1.30;;;9.60;99.90;;;;;;5031649;28;20037;-75
2021/05/15 05:54:58;;;;;;;2.28;1.58;;;9.60;99.90;;;;;;5014063;28;20538;-75
2021/05/15 05:57:23;;;;;;;2.20;1.20;;;9.70;99.90;;;;;;5012078;28;20026;-76
2021/05/15 05:59:49;;;;;;;5.90;1.30;;;9.80;99.90;;;;;;5027613;28;20397;-75
2021/05/15 06:02:15;;;;;;;1.15;1.05;;;10.00;99.90;;;;;;5015226;28;20064;-75
2021/05/15 06:04:40;;;;;;;2.08;1.10;;;10.30;99.90;;;;;;5015191;28;20026;-76
2021/05/15 06:07:07;;;;;;;4.22;1.30;;;10.40;99.90;;;;;;5017049;28;20029;-75
2021/05/15 06:09:34;;;;;;;2.08;1.20;;;10.70;99.90;;;;;;5017277;28;20037;-75
2021/05/15 06:11:59;;;;;;;1.00;1.00;;;10.80;99.90;;;;;;5014767;28;20045;-77
2021/05/15 06:14:25;;;;;;;2.63;1.10;;;11.10;99.90;;;;;;5015370;28;20022;-75
2021/05/15 06:16:51;;;;;;;2.92;1.90;;;11.40;99.90;;;;;;5028529;28;20584;-75
2021/05/15 06:19:17;;;;;;;1.55;1.45;;;11.80;99.90;;;;;;5035157;28;20030;-76
2021/05/15 06:21:43;;;;;;;0.90;0.90;;;11.90;99.90;;;;;;5032831;28;20608;-78
2021/05/15 06:24:10;;;;;;;0.98;0.80;;;11.90;99.90;;;;;;5034863;28;20087;-77
2021/05/15 06:26:36;;;;;;;0.63;0.63;;;12.00;99.90;;;;;;5036126;28;20029;-75
2021/05/15 06:29:02;;;;;;;0.90;0.73;;;12.00;99.90;;;;;;5031666;28;20021;-76
2021/05/15 06:31:28;;;;;;;2.58;0.95;;;11.60;99.90;;;;;;5012493;28;20034;-76
2021/05/15 06:33:53;;;;;;;1.63;1.00;;;11.70;99.90;;;;;;5013612;28;20480;-76
2021/05/15 06:36:19;;;;;;;0.90;0.60;;;11.80;99.90;;;;;;5024309;28;20851;-75
2021/05/15 06:38:45;;;;;;;0.80;0.50;;;12.10;99.90;;;;;;5028551;28;20037;-75
2021/05/15 06:41:10;;;;;;;1.80;0.70;;;12.10;99.90;;;;;;5024779;28;20037;-76
2021/05/15 06:43:36;;;;;;;0.60;0.60;;;12.10;99.90;;;;;;5024433;28;20021;-76
2021/05/15 06:46:02;;;;;;;3.50;0.60;;;12.30;99.90;;;;;;5018678;28;20097;-75
2021/05/15 06:48:27;;;;;;;0.70;0.60;;;12.20;99.90;;;;;;5018548;28;20048;-76
2021/05/15 06:50:53;;;;;;;1.33;0.63;;;12.30;99.90;;;;;;5025133;28;20101;-75
2021/05/15 06:53:19;;;;;;;1.48;0.65;;;12.30;99.90;;;;;;5021499;28;20064;-75
2021/05/15 06:55:44;;;;;;;0.75;0.52;;;12.30;99.90;;;;;;5020896;28;20072;-75
2021/05/15 06:58:10;;;;;;;0.70;0.70;;;12.50;99.90;;;;;;5018600;28;20037;-78
2021/05/15 07:00:36;;;;;;;0.60;0.50;;;12.40;99.90;;;;;;5028406;28;20032;-74
2021/05/15 07:03:02;;;;;;;1.13;0.90;;;12.60;99.90;;;;;;5029452;28;20087;-73
2021/05/15 07:05:28;;;;;;;3.58;1.15;;;12.60;99.90;;;;;;5017804;28;20075;-75
2021/05/15 07:07:53;;;;;;;4.45;0.85;;;12.60;99.90;;;;;;5026359;28;20052;-75
2021/05/15 07:10:19;;;;;;;1.55;0.60;;;12.70;99.90;;;;;;5024759;28;20029;-75
2021/05/15 07:12:45;;;;;;;2.38;0.70;;;12.80;99.90;;;;;;5021657;28;20022;-76
2021/05/15 07:15:11;;;;;;;1.38;0.60;;;12.90;99.90;;;;;;5022578;28;20048;-72
2021/05/15 07:17:37;;;;;;;1.55;0.90;;;13.10;99.90;;;;;;5017532;28;20030;-76
2021/05/15 07:20:06;;;;;;;0.75;0.63;;;13.10;99.90;;;;;;5024080;28;20026;-75
2021/05/15 07:22:32;;;;;;;1.92;0.52;;;13.20;99.90;;;;;;5022907;28;20026;-72
2021/05/15 07:24:59;;;;;;;0.80;0.50;;;13.40;99.90;;;;;;5025572;28;20033;-73
2021/05/15 07:27:28;;;;;;;2.50;1.10;;;13.60;99.90;;;;;;5024377;28;20040;-71
2021/05/15 07:29:54;;;;;;;1.05;0.70;;;13.70;99.90;;;;;;5022366;28;20042;-72
2021/05/15 07:32:24;;;;;;;0.73;0.45;;;13.90;99.90;;;;;;5020865;28;20029;-73
2021/05/15 07:34:50;;;;;;;1.35;0.77;;;14.10;99.90;;;;;;5022998;28;20172;-73
2021/05/15 07:37:16;;;;;;;2.30;0.55;;;13.70;99.90;;;;;;5021104;28;20559;-75
2021/05/15 07:39:42;;;;;;;0.40;0.40;;;13.60;99.90;;;;;;5022695;28;20026;-74
2021/05/15 07:42:09;;;;;;;1.15;0.50;;;13.70;99.90;;;;;;5022754;28;20026;-73
2021/05/15 07:44:35;;;;;;;1.17;0.82;;;13.70;99.90;;;;;;5021418;28;20036;-73
2021/05/15 07:47:02;;;;;;;2.80;1.00;;;13.90;99.90;;;;;;5024070;28;20022;-73
2021/05/15 07:49:28;;;;;;;1.15;0.50;;;13.90;99.90;;;;;;5037324;28;20049;-74
2021/05/15 07:51:53;;;;;;;1.52;0.50;;;14.20;99.90;;;;;;5024190;28;20091;-75
2021/05/15 07:54:20;;;;;;;1.75;0.55;;;15.00;99.90;;;;;;5022005;28;20033;-75
2021/05/15 07:56:47;;;;;;;2.42;0.40;;;14.90;99.90;;;;;;5021700;28;20034;-75
2021/05/15 07:59:13;;;;;;;1.10;0.55;;;14.90;99.90;;;;;;5020503;28;20052;-74
2021/05/15 08:01:39;;;;;;;0.60;0.50;;;15.10;99.90;;;;;;5022284;28;20613;-75
2021/05/15 08:04:05;;;;;;;2.17;0.50;;;15.20;99.90;;;;;;5021371;28;20014;-73
2021/05/15 08:06:30;;;;;;;1.77;0.50;;;15.40;99.90;;;;;;5019365;28;20155;-73
2021/05/15 08:08:56;;;;;;;0.43;0.43;;;15.40;99.90;;;;;;5027666;28;20030;-73
2021/05/15 08:11:22;;;;;;;1.40;0.88;;;15.60;99.90;;;;;;5021076;28;20026;-72
2021/05/15 08:13:48;;;;;;;2.38;0.90;;;15.50;99.90;;;;;;5020210;28;20021;-76
2021/05/15 08:16:14;;;;;;;2.42;0.68;;;15.30;99.90;;;;;;5021898;28;20022;-74
2021/05/15 08:18:44;;;;;;;1.70;0.50;;;15.10;99.90;;;;;;5024018;28;20029;-74
2021/05/15 08:21:10;;;;;;;1.40;0.40;;;15.00;99.90;;;;;;5027627;28;20065;-73
2021/05/15 08:23:36;;;;;;;0.98;0.50;;;14.90;99.90;;;;;;5026762;28;20504;-75
2021/05/15 08:26:07;;;;;;;0.40;0.40;;;14.80;99.90;;;;;;5024080;28;20030;-72
2021/05/15 08:28:33;;;;;;;1.30;0.50;;;14.50;99.90;;;;;;5026609;28;20037;-73
2021/05/15 08:30:59;;;;;;;1.08;0.40;;;14.50;99.90;;;;;;5023894;28;20021;-74
2021/05/15 08:33:25;;;;;;;0.57;0.40;;;14.50;99.90;;;;;;5021371;28;20034;-74
2021/05/15 08:35:51;;;;;;;1.60;0.70;;;14.20;99.90;;;;;;5022354;28;20026;-73
2021/05/15 08:38:17;;;;;;;1.73;0.82;;;14.50;99.90;;;;;;5020548;28;20083;-71
2021/05/15 08:40:43;;;;;;;1.42;0.40;;;14.60;99.90;;;;;;5021680;28;20172;-74
2021/05/15 08:43:10;;;;;;;0.50;0.50;;;14.90;99.90;;;;;;5026607;28;20099;-76
2021/05/15 08:45:36;;;;;;;3.63;0.40;;;14.90;99.90;;;;;;5023643;28;20025;-74
2021/05/15 08:48:04;;;;;;;0.52;0.40;;;14.90;99.90;;;;;;5021596;28;20025;-76
2021/05/15 08:50:31;;;;;;;0.90;0.47;;;14.90;99.90;;;;;;5023037;28;20550;-74
2021/05/15 08:53:00;;;;;;;1.45;0.88;;;14.90;99.90;;;;;;5023460;28;20125;-73
2021/05/15 08:55:31;;;;;;;0.90;0.30;;;14.90;99.90;;;;;;5022639;28;20056;-74
2021/05/15 08:57:59;;;;;;;2.80;0.50;;;14.80;99.90;;;;;;5020374;28;20535;-73
2021/05/15 09:00:26;;;;;;;1.52;0.70;;;14.80;99.90;;;;;;5019980;28;20111;-75
2021/05/15 09:02:59;;;;;;;2.38;0.50;;;14.80;99.90;;;;;;5019126;28;20040;-74
2021/05/15 09:05:25;;;;;;;;;;;14.50;99.90;;;;;;5019405;28;20507;-77
2021/05/15 09:07:56;;;;;;;4.05;0.60;;;15.30;99.90;;;;;;5021432;28;19909;-76
2021/05/15 09:10:25;;;;;;;0.82;0.50;;;15.10;99.90;;;;;;5018910;28;20079;-74
2021/05/15 09:12:51;;;;;;;1.02;0.52;;;15.40;99.90;;;;;;5020034;28;20021;-75
2021/05/15 09:15:17;;;;;;;0.60;0.50;;;15.40;99.90;;;;;;5020690;28;20029;-75
2021/05/15 09:17:49;;;;;;;1.40;0.60;;;15.10;99.90;;;;;;5026153;28;20028;-74
2021/05/15 09:20:29;;;;;;;2.65;0.70;;;15.50;99.90;;;;;;5018573;28;20030;-78
2021/05/15 09:22:55;;;;;;;2.08;0.45;;;15.80;99.90;;;;;;5023037;28;20146;-76
2021/05/15 09:25:21;;;;;;;0.98;0.60;;;15.70;99.90;;;;;;5021986;28;20108;-75
2021/05/15 09:27:48;;;;;;;0.60;0.47;;;15.70;99.90;;;;;;5016650;28;20053;-76
2021/05/15 09:30:16;;;;;;;4.40;0.50;;;15.90;99.90;;;;;;5018710;28;20025;-74
2021/05/15 09:32:42;;;;;;;1.55;0.73;;;16.00;99.90;;;;;;5022008;28;20029;-75
2021/05/15 09:35:08;;;;;;;2.65;0.95;;;16.00;99.90;;;;;;5022292;28;20030;-72
2021/05/15 09:37:42;;;;;;;1.85;0.77;;;16.20;99.90;;;;;;5020506;28;20025;-72
2021/05/15 09:40:25;;;;;;;2.55;0.73;;;16.60;99.90;;;;;;5018419;28;20092;-71
2021/05/15 09:42:57;;;;;;;1.35;0.60;;;16.90;99.90;;;;;;5041739;28;20046;-72
2021/05/15 09:45:26;;;;;;;3.65;0.47;;;16.60;99.90;;;;;;5019487;28;20025;-71
2021/05/15 09:47:53;;;;;;;1.42;0.75;;;16.60;99.90;;;;;;5019095;28;20018;-72
2021/05/15 09:50:19;;;;;;;2.97;0.90;;;16.90;99.90;;;;;;5020956;28;20026;-73
2021/05/15 09:52:45;;;;;;;1.23;0.68;;;17.30;99.90;;;;;;5019023;28;20399;-73
2021/05/15 09:55:11;;;;;;;2.75;0.60;;;17.80;99.90;;;;;;5018467;28;20032;-73
2021/05/15 09:57:37;;;;;;;5.43;0.70;;;18.00;99.90;;;;;;5019401;28;20468;-73
2021/05/15 10:00:13;;;;;;;3.33;0.80;;;18.30;99.90;;;;;;5020227;28;20060;-73
2021/05/15 10:02:39;;;;;;;0.68;0.68;;;19.10;99.90;;;;;;5020492;28;20025;-74
2021/05/15 10:05:12;;;;;;;5.97;0.95;;;19.60;99.60;;;;;;5019966;28;20101;-72
2021/05/15 10:07:38;;;;;;;4.07;0.80;;;19.30;99.90;;;;;;5020373;28;20036;-71
2021/05/15 10:10:08;;;;;;;1.75;0.50;;;19.00;99.80;;;;;;5020490;28;20482;-73
2021/05/15 10:12:34;;;;;;;2.17;0.90;;;18.50;99.80;;;;;;5020881;28;20041;-73
2021/05/15 10:15:01;;;;;;;1.30;0.52;;;18.40;99.90;;;;;;5021046;28;20120;-74
2021/05/15 10:17:27;;;;;;;4.00;0.93;;;18.20;99.90;;;;;;5020736;28;20116;-73
2021/05/15 10:19:54;;;;;;;3.30;0.68;;;18.50;99.90;;;;;;5019555;28;20411;-74
2021/05/15 10:22:20;;;;;;;3.78;0.70;;;18.80;99.60;;;;;;5018798;28;20060;-70
2021/05/15 10:24:48;;;;;;;1.67;0.75;;;18.70;99.50;;;;;;5017886;28;20476;-71
2021/05/15 10:27:15;;;;;;;1.85;0.68;;;19.30;99.90;;;;;;5022373;28;20120;-74
2021/05/15 10:29:44;;;;;;;2.45;1.02;;;20.00;95.20;;;;;;5023957;28;20573;-72
2021/05/15 10:32:30;;;;;;;4.78;0.93;;;18.60;98.00;;;;;;5025680;28;20064;-73
2021/05/15 10:35:07;;;;;;;2.60;0.73;;;18.50;98.00;;;;;;5022740;28;20108;-73
2021/05/15 10:37:37;;;;;;;4.47;0.70;;;18.10;97.30;;;;;;5025276;28;20408;-72
2021/05/15 10:40:20;;;;;;;1.20;0.55;;;17.10;97.70;;;;;;5025517;28;20117;-73
2021/05/15 10:42:56;;;;;;;;;;;17.00;99.50;;;;;;5025700;28;20032;-73
2021/05/15 10:45:35;;;;;;;1.40;0.73;;;16.60;98.30;;;;;;5026259;28;20648;-72
2021/05/15 10:48:11;;;;;;;1.60;1.13;;;15.70;99.90;;;;;;5023455;28;20026;-74
2021/05/15 10:50:48;;;;;;;4.05;0.82;;;15.40;99.90;;;;;;5023314;28;20022;-72
2021/05/15 10:53:22;;;;;;;1.13;0.65;;;14.80;99.90;;;;;;5044835;28;20121;-71
2021/05/15 10:56:03;;;;;;;2.15;0.98;;;14.20;99.90;;;;;;5022561;28;20500;-72
2021/05/15 10:58:43;;;;;;;1.95;0.70;;;13.50;99.90;;;;;;5046970;28;20036;-72
2021/05/15 11:01:16;;;;;;;3.78;0.60;;;13.20;99.90;;;;;;5023933;28;20101;-72
2021/05/15 11:03:42;;;;;;;2.72;0.50;;;13.20;99.90;;;;;;5021554;28;20108;-73
2021/05/15 11:06:13;;;;;;;1.27;0.63;;;13.50;99.90;;;;;;5020862;28;20026;-71
2021/05/15 11:08:40;;;;;;;1.15;0.68;;;13.90;99.90;;;;;;5021430;28;20022;-71
2021/05/15 11:11:09;;;;;;;3.65;1.05;;;14.40;99.90;;;;;;5025413;28;20026;-71
2021/05/15 11:13:49;;;;;;;3.25;0.52;;;15.40;99.90;;;;;;5025851;28;20041;-72
2021/05/15 11:16:15;;;;;;;2.92;0.40;;;15.90;99.90;;;;;;5022362;28;20057;-72
2021/05/15 11:18:41;;;;;;;1.77;0.50;;;15.70;99.90;;;;;;5023157;28;20026;-72
2021/05/15 11:21:09;;;;;;;2.58;0.60;;;16.60;99.90;;;;;;5021832;28;20025;-72
2021/05/15 11:23:47;;;;;;;2.70;1.10;;;17.20;99.90;;;;;;5026414;28;20038;-73
2021/05/15 11:26:18;;;;;;;2.25;1.20;;;17.80;99.90;;;;;;5019233;28;20026;-72
2021/05/15 11:28:43;;;;;;;3.97;1.05;;;18.60;99.90;;;;;;5021941;28;20028;-72
2021/05/15 11:31:11;;;;;;;2.38;0.52;;;19.00;99.90;;;;;;5027796;28;20045;-71
2021/05/15 11:33:36;;;;;;;2.15;0.65;;;18.80;98.90;;;;;;5020476;28;20026;-71
2021/05/15 11:36:02;;;;;;;0.95;0.40;;;17.70;99.90;;;;;;5022447;28;20385;-72
2021/05/15 11:38:33;;;;;;;2.17;0.70;;;17.50;99.90;;;;;;5028662;28;20380;-72
2021/05/15 11:41:02;;;;;;;1.77;0.80;;;16.90;99.90;;;;;;5017910;28;20457;-72
2021/05/15 11:43:36;;;;;;;5.47;1.20;;;16.20;99.90;;;;;;5012073;28;20084;-71
2021/05/15 11:46:04;;;;;;;2.20;0.55;;;15.60;99.90;;;;;;5022583;28;20036;-70
2021/05/15 11:48:37;;;;;;;3.88;0.80;;;15.30;99.90;;;;;;5025428;28;20036;-73
2021/05/15 11:51:05;;;;;;;3.00;0.60;;;15.50;99.90;;;;;;5028540;28;20037;-72
2021/05/15 11:53:36;;;;;;;0.75;0.55;;;15.70;99.90;;;;;;5017500;28;20022;-70
2021/05/15 11:56:08;;;;;;;2.50;0.70;;;15.70;99.90;;;;;;5020819;28;20063;-71
2021/05/15 11:58:34;;;;;;;1.45;0.70;;;15.70;99.90;;;;;;5024691;28;20048;-73
2021/05/15 12:01:00;;;;;;;3.38;1.05;;;16.00;99.90;;;;;;5017374;28;20034;-71
2021/05/15 12:03:26;;;;;;;6.60;1.20;;;16.10;99.90;;;;;;5026388;28;20028;-72
2021/05/15 12:05:52;;;;;;;3.20;0.98;;;16.10;99.90;;;;;;5023364;28;20173;-72
2021/05/15 12:08:19;;;;;;;3.20;1.00;;;16.20;99.90;;;;;;5020857;28;20052;-73
2021/05/15 12:10:49;;;;;;;2.85;0.70;;;17.20;99.90;;;;;;5019579;28;20025;-72
2021/05/15 12:13:15;;;;;;;1.27;1.02;;;18.30;99.90;;;;;;5026164;28;20147;-73
2021/05/15 12:15:48;;;;;;;1.52;0.80;;;18.10;99.90;;;;;;5017690;28;20026;-75
2021/05/15 12:18:14;;;;;;;1.67;0.98;;;18.20;99.90;;;;;;5014720;28;20080;-75
2021/05/15 12:20:43;;;;;;;3.05;1.08;;;18.60;99.90;;;;;;5019557;28;20025;-75
2021/05/15 12:23:12;;;;;;;4.55;0.98;;;18.80;99.90;;;;;;5021388;28;20072;-75
2021/05/15 12:25:40;;;;;;;2.97;0.63;;;18.40;99.90;;;;;;5020962;28;20032;-76
2021/05/15 12:28:27;;;;;;;2.70;1.00;;;18.40;99.90;;;;;;5021000;28;20040;-77
2021/05/15 12:30:54;;;;;;;4.32;0.80;;;18.20;99.90;;;;;;5024105;28;20036;-72
2021/05/15 12:33:25;;;;;;;1.25;0.65;;;17.90;99.90;;;;;;5017649;28;20472;-72
2021/05/15 12:36:04;;;;;;;4.63;0.60;;;17.10;99.90;;;;;;5019742;28;20061;-72
2021/05/15 12:38:32;;;;;;;1.23;0.70;;;17.40;99.90;;;;;;5019346;28;20029;-73
2021/05/15 12:41:25;;;;;;;2.05;0.88;;;17.10;99.90;;;;;;5020492;28;20032;-72
2021/05/15 12:44:02;;;;;;;2.03;1.00;;;17.40;99.90;;;;;;5038058;28;20030;-73
2021/05/15 12:46:32;;;;;;;3.70;0.77;;;17.40;99.90;;;;;;5024493;28;20032;-73
2021/05/15 12:49:01;;;;;;;2.45;0.75;;;17.60;99.60;;;;;;5023683;28;20053;-72
2021/05/15 12:51:29;;;;;;;2.40;0.88;;;17.00;99.90;;;;;;5047371;28;20521;-74
2021/05/15 12:53:56;;;;;;;3.70;0.93;;;17.80;99.80;;;;;;5025596;28;20456;-75
2021/05/15 12:56:33;;;;;;;1.00;0.60;;;18.70;99.70;;;;;;5026139;28;20053;-74
2021/05/15 12:58:58;;;;;;;1.70;0.65;;;18.30;99.80;;;;;;5019781;28;20111;-72